Alpine, Arizona
Current Conditions -  °F | °C
As of 1:35 PM on Friday 28 Nov 2014 (Local Time) from KJTC Reporting Station
Clear Clear  
Wind Chill: 68°   Ceiling: Unl
Heat Index: 68°   Visibility: 10mi
Dew Point:   Wind: 12mph
Humidity: 8%   Direction: 350°N
Pressure: 30.21"   Gusts: NA
Location:  33.85°N, 109.14°W
Report Text: KJTC 282035Z AUTO 35010KT 10SM CLR 20/M15 A3021 RMK AO2
Loading
Personal Weather Stations






























Interactive Weather Map New forecast layout! Learn more

10-Day Weather Forecast

Advertisements
Track Severe Weather on mobile